createdAt,value
2023-04-13T00:00:55.891Z,98318.83
2023-04-13T00:03:24.672Z,98317.11
2023-04-13T00:05:53.164Z,98326.89
2023-04-13T00:08:24.302Z,98335.12
2023-04-13T00:10:57.445Z,98339.07
2023-04-13T00:13:25.293Z,98337.05
2023-04-13T00:15:55.949Z,98339.66
2023-04-13T00:18:25.421Z,98342.23
2023-04-13T00:20:54.101Z,98340.85
2023-04-13T00:23:22.462Z,98335.86
2023-04-13T00:25:56.372Z,98338.25
2023-04-13T00:28:25.359Z,98337.20
2023-04-13T00:30:53.295Z,98341.98
2023-04-13T00:33:22.182Z,98336.30
2023-04-13T00:35:50.062Z,98330.13
2023-04-13T00:38:18.262Z,98333.19
2023-04-13T00:40:48.578Z,98335.42
2023-04-13T00:43:16.630Z,98328.05
2023-04-13T00:45:45.166Z,98323.05
2023-04-13T00:48:19.674Z,98318.26
2023-04-13T00:50:48.510Z,98315.69
2023-04-13T00:53:17.365Z,98308.47
2023-04-13T00:55:45.344Z,98310.38
2023-04-13T00:58:14.442Z,98313.13
2023-04-13T01:00:46.158Z,98311.08
2023-04-13T01:03:15.996Z,98312.64
2023-04-13T01:05:55.230Z,98310.77
2023-04-13T01:08:37.018Z,98299.16
2023-04-13T01:11:19.700Z,98301.91
2023-04-13T01:14:02.253Z,98306.38
2023-04-13T01:16:33.248Z,98319.45
2023-04-13T01:19:04.090Z,98327.17
2023-04-13T01:21:32.023Z,98321.34
2023-04-13T01:24:17.007Z,98314.14
2023-04-13T01:27:07.282Z,98315.67
2023-04-13T01:29:36.508Z,98317.22
2023-04-13T01:32:05.380Z,98316.04
2023-04-13T01:34:33.653Z,98320.70
2023-04-13T01:37:04.648Z,98322.59
2023-04-13T01:39:33.338Z,98315.38
2023-04-13T01:42:23.492Z,98309.86
2023-04-13T01:44:54.512Z,98307.12
2023-04-13T01:47:23.098Z,98313.10
2023-04-13T01:50:00.625Z,98310.02
2023-04-13T01:52:35.952Z,98312.09
2023-04-13T01:55:06.077Z,98318.27
2023-04-13T01:57:36.220Z,98318.44
2023-04-13T02:00:11.033Z,98319.98
2023-04-13T02:02:42.230Z,98316.55
2023-04-13T02:05:11.523Z,98317.07
2023-04-13T02:07:44.778Z,98317.41
2023-04-13T02:10:13.672Z,98315.50
2023-04-13T02:12:42.818Z,98313.27
2023-04-13T02:15:12.002Z,98318.41
2023-04-13T02:17:42.512Z,98325.61
2023-04-13T02:20:12.103Z,98327.98
2023-04-13T02:22:48.138Z,98318.08
2023-04-13T02:25:17.340Z,98314.13
2023-04-13T02:27:45.642Z,98310.19
2023-04-13T02:30:13.581Z,98312.61
2023-04-13T02:33:00.405Z,98308.02
2023-04-13T02:35:28.937Z,98305.45
2023-04-13T02:37:58.232Z,98308.23
2023-04-13T02:40:28.515Z,98317.84
2023-04-13T02:43:00.005Z,98315.77
2023-04-13T02:45:28.601Z,98317.68
2023-04-13T02:48:06.215Z,98316.14
2023-04-13T02:50:35.073Z,98318.73
2023-04-13T02:53:07.913Z,98321.98
2023-04-13T02:55:36.614Z,98325.41
2023-04-13T02:58:08.631Z,98322.69
2023-04-13T03:00:37.537Z,98324.56
2023-04-13T03:03:20.980Z,98316.83
2023-04-13T03:05:51.410Z,98316.14
2023-04-13T03:08:23.836Z,98324.16
2023-04-13T03:11:01.094Z,98326.05
2023-04-13T03:13:30.741Z,98328.77
2023-04-13T03:16:00.574Z,98327.40
2023-04-13T03:18:29.199Z,98326.55
2023-04-13T03:20:57.103Z,98329.96
2023-04-13T03:23:28.071Z,98335.98
2023-04-13T03:25:58.789Z,98337.70
2023-04-13T03:28:27.277Z,98341.81
2023-04-13T03:30:55.603Z,98340.30
2023-04-13T03:33:25.672Z,98338.95
2023-04-13T03:35:53.657Z,98340.16
2023-04-13T03:38:26.872Z,98342.02
2023-04-13T03:40:55.049Z,98346.46
2023-04-13T03:43:23.006Z,98350.89
2023-04-13T03:45:59.690Z,98351.23
2023-04-13T03:48:28.052Z,98356.54
2023-04-13T03:50:56.314Z,98356.38
2023-04-13T03:53:28.392Z,98347.98
2023-04-13T03:55:56.896Z,98342.34
2023-04-13T03:58:24.721Z,98350.79
2023-04-13T04:00:53.042Z,98353.35
2023-04-13T04:03:32.351Z,98351.11
2023-04-13T04:06:04.808Z,98347.83
2023-04-13T04:08:35.864Z,98344.04
2023-04-13T04:11:06.774Z,98350.02
2023-04-13T04:13:35.379Z,98353.94
2023-04-13T04:16:11.783Z,98356.48
2023-04-13T04:18:44.036Z,98361.59
2023-04-13T04:21:15.731Z,98368.45
2023-04-13T04:23:45.612Z,98372.02
2023-04-13T04:26:14.544Z,98369.44
2023-04-13T04:28:46.981Z,98370.96
2023-04-13T04:31:21.673Z,98373.87
2023-04-13T04:33:53.305Z,98384.66
2023-04-13T04:36:22.115Z,98383.27
2023-04-13T04:38:58.296Z,98381.53
2023-04-13T04:41:26.972Z,98386.14
2023-04-13T04:43:56.986Z,98389.23
2023-04-13T04:46:26.004Z,98388.54
2023-04-13T04:49:00.869Z,98384.08
2023-04-13T04:51:31.438Z,98378.76
2023-04-13T04:54:02.149Z,98371.38
2023-04-13T04:56:30.159Z,98368.96
2023-04-13T04:59:00.798Z,98364.98
2023-04-13T05:01:36.265Z,98369.94
2023-04-13T05:04:09.621Z,98368.73
2023-04-13T05:06:42.182Z,98368.02
2023-04-13T05:09:14.836Z,98362.86
2023-04-13T05:11:47.640Z,98363.20
2023-04-13T05:14:16.142Z,98361.48
2023-04-13T05:16:45.966Z,98365.73
2023-04-13T05:19:35.371Z,98363.48
2023-04-13T05:22:13.067Z,98359.35
2023-04-13T05:24:46.369Z,98360.19
2023-04-13T05:27:16.026Z,98362.40
2023-04-13T05:29:47.902Z,98369.58
2023-04-13T05:32:18.601Z,98374.56
2023-04-13T05:34:48.203Z,98377.80
2023-04-13T05:37:25.059Z,98384.63
2023-04-13T05:39:53.693Z,98381.50
2023-04-13T05:42:25.004Z,98387.11
2023-04-13T05:44:52.969Z,98385.18
2023-04-13T05:47:21.978Z,98388.91
2023-04-13T05:49:50.968Z,98384.77
2023-04-13T05:52:22.074Z,98388.89
2023-04-13T05:54:50.418Z,98386.28
2023-04-13T05:57:22.940Z,98381.97
2023-04-13T05:59:53.641Z,98380.21
2023-04-13T06:02:26.804Z,98384.16
2023-04-13T06:04:56.536Z,98382.41
2023-04-13T06:07:26.143Z,98387.52
2023-04-13T06:09:54.232Z,98388.16
2023-04-13T06:12:32.156Z,98394.30
2023-04-13T06:15:01.912Z,98392.67
2023-04-13T06:17:30.879Z,98388.34
2023-04-13T06:19:58.843Z,98384.19
2023-04-13T06:22:30.870Z,98387.76
2023-04-13T06:24:59.026Z,98394.23
2023-04-13T06:27:28.295Z,98397.80
2023-04-13T06:29:58.200Z,98397.45
2023-04-13T06:32:26.422Z,98398.98
2023-04-13T06:34:54.437Z,98400.64
2023-04-13T06:37:22.440Z,98406.44
2023-04-13T06:39:51.831Z,98411.20
2023-04-13T06:42:21.302Z,98416.85
2023-04-13T06:45:10.761Z,98417.20
2023-04-13T06:47:43.344Z,98425.06
2023-04-13T06:50:14.221Z,98424.50
2023-04-13T06:52:43.590Z,98425.66
2023-04-13T06:55:11.674Z,98426.84
2023-04-13T06:57:41.912Z,98427.04
2023-04-13T07:00:22.306Z,98429.28
2023-04-13T07:02:58.348Z,98421.05
2023-04-13T07:05:26.602Z,98422.63
2023-04-13T07:07:56.223Z,98425.88
2023-04-13T07:10:24.326Z,98428.76
2023-04-13T07:12:53.236Z,98426.45
2023-04-13T07:15:22.717Z,98426.36
2023-04-13T07:17:52.476Z,98427.83
2023-04-13T07:20:22.240Z,98426.52
2023-04-13T07:22:51.508Z,98422.30
2023-04-13T07:25:19.396Z,98422.05
2023-04-13T07:27:49.061Z,98420.84
2023-04-13T07:30:19.417Z,98419.62
2023-04-13T07:32:49.128Z,98410.84
2023-04-13T07:35:17.360Z,98416.80
2023-04-13T07:37:51.407Z,98420.02
2023-04-13T07:40:21.592Z,98423.40
2023-04-13T07:42:50.704Z,98423.89
2023-04-13T07:45:20.657Z,98427.69
2023-04-13T07:47:49.121Z,98434.26
2023-04-13T07:50:18.092Z,98439.46
2023-04-13T07:52:48.637Z,98443.89
2023-04-13T07:55:18.539Z,98446.97
2023-04-13T07:57:49.804Z,98449.52
2023-04-13T08:00:20.596Z,98453.77
2023-04-13T08:02:49.257Z,98456.27
2023-04-13T08:05:24.063Z,98455.50
2023-04-13T08:07:53.794Z,98456.41
2023-04-13T08:10:22.258Z,98453.16
2023-04-13T08:12:50.232Z,98460.00
2023-04-13T08:15:19.343Z,98462.73
2023-04-13T08:17:49.086Z,98467.25
2023-04-13T08:20:21.193Z,98468.30
2023-04-13T08:22:55.282Z,98463.42
2023-04-13T08:25:23.596Z,98460.44
2023-04-13T08:27:51.452Z,98457.29
2023-04-13T08:30:21.412Z,98458.03
2023-04-13T08:32:54.892Z,98458.58
2023-04-13T08:35:24.148Z,98459.98
2023-04-13T08:37:53.934Z,98459.68
2023-04-13T08:40:23.139Z,98455.66
2023-04-13T08:42:52.110Z,98457.84
2023-04-13T08:45:19.940Z,98457.45
2023-04-13T08:47:51.419Z,98454.14
2023-04-13T08:50:21.263Z,98454.39
2023-04-13T08:52:54.177Z,98454.67
2023-04-13T08:55:23.532Z,98452.98
2023-04-13T08:57:52.018Z,98454.96
2023-04-13T09:00:21.973Z,98456.61
2023-04-13T09:03:04.808Z,98453.29
2023-04-13T09:05:37.097Z,98458.03
2023-04-13T09:08:08.157Z,98457.94
2023-04-13T09:10:40.999Z,98462.45
2023-04-13T09:13:09.513Z,98465.73
2023-04-13T09:15:37.808Z,98462.49
2023-04-13T09:18:30.108Z,98470.23
2023-04-13T09:21:08.178Z,98467.60
2023-04-13T09:23:37.321Z,98469.30
2023-04-13T09:26:08.925Z,98475.48
2023-04-13T09:28:47.329Z,98474.05
2023-04-13T09:31:15.836Z,98471.27
2023-04-13T09:33:46.082Z,98471.90
2023-04-13T09:36:17.440Z,98474.79
2023-04-13T09:38:54.069Z,98476.13
2023-04-13T09:41:37.868Z,98471.25
2023-04-13T09:44:28.744Z,98471.92
2023-04-13T09:46:58.031Z,98470.34
2023-04-13T09:49:26.714Z,98468.17
2023-04-13T09:51:54.639Z,98469.83
2023-04-13T09:54:23.044Z,98474.98
2023-04-13T09:56:58.046Z,98477.73
2023-04-13T09:59:28.858Z,98475.33
2023-04-13T10:01:57.124Z,98475.98
2023-04-13T10:04:25.866Z,98479.14
2023-04-13T10:06:53.741Z,98475.74
2023-04-13T10:09:22.385Z,98477.09
2023-04-13T10:11:50.746Z,98481.57
2023-04-13T10:14:21.981Z,98482.58
2023-04-13T10:16:59.099Z,98482.56
2023-04-13T10:19:28.471Z,98477.32
2023-04-13T10:21:56.296Z,98480.34
2023-04-13T10:24:30.849Z,98482.33
2023-04-13T10:27:01.884Z,98487.44
2023-04-13T10:29:30.671Z,98489.25
2023-04-13T10:32:03.613Z,98491.14
2023-04-13T10:34:34.418Z,98491.21
2023-04-13T10:37:06.855Z,98490.73
2023-04-13T10:39:36.193Z,98490.44
2023-04-13T10:42:08.387Z,98490.55
2023-04-13T10:44:49.268Z,98489.45
2023-04-13T10:47:18.319Z,98490.98
2023-04-13T10:49:47.700Z,98493.64
2023-04-13T10:52:16.256Z,98502.42
2023-04-13T10:54:45.110Z,98508.68
2023-04-13T10:57:15.059Z,98509.20
2023-04-13T10:59:58.733Z,98514.88
2023-04-13T11:02:30.623Z,98513.84
2023-04-13T11:04:58.678Z,98520.89
2023-04-13T11:07:26.938Z,98519.68
2023-04-13T11:10:03.281Z,98522.67
2023-04-13T11:12:32.438Z,98523.34
2023-04-13T11:15:03.919Z,98527.44
2023-04-13T11:17:33.053Z,98528.50
2023-04-13T11:20:02.052Z,98527.50
2023-04-13T11:22:35.676Z,98529.40
2023-04-13T11:25:10.024Z,98530.73
2023-04-13T11:27:38.170Z,98531.45
2023-04-13T11:30:09.279Z,98528.42
2023-04-13T11:32:41.468Z,98527.25
2023-04-13T11:35:10.379Z,98527.78
2023-04-13T11:37:40.240Z,98526.09
2023-04-13T11:40:15.045Z,98523.69
2023-04-13T11:42:45.974Z,98528.91
2023-04-13T11:45:14.929Z,98530.38
2023-04-13T11:47:43.793Z,98531.09
2023-04-13T11:50:15.586Z,98532.11
2023-04-13T11:52:44.322Z,98529.19
2023-04-13T11:55:22.411Z,98534.21
2023-04-13T11:57:53.110Z,98536.36
2023-04-13T12:00:26.655Z,98533.98
2023-04-13T12:05:30.074Z,98537.32
2023-04-13T12:07:59.298Z,98541.32
2023-04-13T12:10:40.572Z,98540.80
2023-04-13T12:16:05.432Z,98541.54
2023-04-13T12:18:49.576Z,98543.86
2023-04-13T12:21:20.597Z,98546.45
2023-04-13T12:23:55.043Z,98547.86
2023-04-13T12:29:08.572Z,98551.77
2023-04-13T12:31:41.793Z,98549.82
2023-04-13T12:34:09.748Z,98555.13
2023-04-13T12:36:37.758Z,98555.36
2023-04-13T12:39:06.797Z,98554.71
2023-04-13T12:41:34.787Z,98555.17
2023-04-13T12:44:02.572Z,98552.20
2023-04-13T12:46:30.972Z,98552.15
2023-04-13T12:48:59.033Z,98552.76
2023-04-13T12:51:28.160Z,98553.17
2023-04-13T12:53:56.397Z,98551.83
2023-04-13T12:56:24.758Z,98557.22
2023-04-13T12:58:52.840Z,98558.98
2023-04-13T13:01:22.008Z,98564.84
2023-04-13T13:03:51.210Z,98565.38
2023-04-13T13:06:19.377Z,98564.50
2023-04-13T13:08:47.425Z,98567.66
2023-04-13T13:11:16.095Z,98568.02
2023-04-13T13:13:44.595Z,98566.40
2023-04-13T13:16:14.084Z,98562.19
2023-04-13T13:18:51.277Z,98561.55
2023-04-13T13:21:21.774Z,98565.40
2023-04-13T13:23:49.601Z,98572.00
2023-04-13T13:28:50.700Z,98575.80
2023-04-13T13:31:19.192Z,98579.59
2023-04-13T13:33:47.950Z,98580.46
2023-04-13T13:36:16.169Z,98579.08
2023-04-13T13:38:44.031Z,98581.48
2023-04-13T13:41:12.558Z,98579.71
2023-04-13T13:43:42.544Z,98577.09
2023-04-13T13:46:10.594Z,98577.88
2023-04-13T13:48:38.890Z,98579.07
2023-04-13T13:51:27.757Z,98574.55
2023-04-13T13:53:56.117Z,98573.79
2023-04-13T13:56:24.181Z,98571.70
2023-04-13T13:58:52.511Z,98571.69
2023-04-13T14:01:20.935Z,98570.19
2023-04-13T14:03:49.873Z,98571.11
2023-04-13T14:06:17.930Z,98570.15
2023-04-13T14:08:46.665Z,98577.09
2023-04-13T14:11:15.174Z,98577.63
2023-04-13T14:13:43.028Z,98584.33
2023-04-13T14:16:11.322Z,98584.17
2023-04-13T14:18:41.291Z,98589.20
2023-04-13T14:21:09.633Z,98585.79
2023-04-13T14:23:40.491Z,98590.77
2023-04-13T14:26:08.648Z,98585.27
2023-04-13T14:28:36.957Z,98590.77
2023-04-13T14:31:09.809Z,98589.61
2023-04-13T14:33:39.379Z,98587.95
2023-04-13T14:36:08.828Z,98587.33
2023-04-13T14:38:36.766Z,98591.19
2023-04-13T14:41:04.858Z,98593.48
2023-04-13T14:43:33.116Z,98591.79
2023-04-13T14:46:04.072Z,98594.03
2023-04-13T14:48:32.878Z,98595.08
2023-04-13T14:51:00.935Z,98596.47
2023-04-13T14:53:30.356Z,98598.36
2023-04-13T14:55:58.559Z,98594.08
2023-04-13T14:58:26.629Z,98600.66
2023-04-13T15:00:55.576Z,98602.79
2023-04-13T15:03:28.972Z,98604.52
2023-04-13T15:06:03.959Z,98607.48
2023-04-13T15:08:34.096Z,98611.10
2023-04-13T15:11:04.471Z,98615.77
2023-04-13T15:13:33.066Z,98615.95
2023-04-13T15:16:01.463Z,98616.35
2023-04-13T15:18:29.870Z,98612.72
2023-04-13T15:21:03.407Z,98615.84
2023-04-13T15:23:32.765Z,98617.94
2023-04-13T15:26:03.661Z,98616.56
2023-04-13T15:28:32.819Z,98619.83
2023-04-13T15:31:01.215Z,98621.41
2023-04-13T15:33:29.286Z,98625.37
2023-04-13T15:35:57.875Z,98626.23
2023-04-13T15:38:27.107Z,98633.98
2023-04-13T15:40:55.305Z,98635.33
2023-04-13T15:43:23.344Z,98637.90
2023-04-13T15:45:51.199Z,98637.35
2023-04-13T15:48:20.644Z,98637.17
2023-04-13T15:50:56.727Z,98639.39
2023-04-13T15:53:25.774Z,98640.78
2023-04-13T15:55:55.483Z,98645.61
2023-04-13T15:58:23.375Z,98649.22
2023-04-13T16:01:00.611Z,98646.48
2023-04-13T16:03:31.109Z,98646.70
2023-04-13T16:05:59.165Z,98647.74
2023-04-13T16:08:27.144Z,98649.83
2023-04-13T16:10:55.558Z,98648.82
2023-04-13T16:13:24.928Z,98650.04
2023-04-13T16:15:58.770Z,98654.69
2023-04-13T16:18:30.110Z,98658.67
2023-04-13T16:20:59.129Z,98663.20
2023-04-13T16:23:29.658Z,98662.36
2023-04-13T16:25:58.479Z,98664.09
2023-04-13T16:28:28.025Z,98661.02
2023-04-13T16:30:56.563Z,98663.65
2023-04-13T16:33:24.939Z,98662.11
2023-04-13T16:35:52.896Z,98662.65
2023-04-13T16:38:20.901Z,98668.51
2023-04-13T16:40:49.158Z,98672.66
2023-04-13T16:43:17.053Z,98672.34
2023-04-13T16:45:45.179Z,98671.98
2023-04-13T16:48:13.271Z,98670.77
2023-04-13T16:50:41.328Z,98668.69
2023-04-13T16:53:11.734Z,98668.16
2023-04-13T16:55:41.235Z,98666.44
2023-04-13T16:58:10.400Z,98670.91
2023-04-13T17:00:40.365Z,98676.59
2023-04-13T17:03:08.322Z,98682.63
2023-04-13T17:05:36.964Z,98688.31
2023-04-13T17:08:08.541Z,98694.01
2023-04-13T17:10:37.134Z,98698.48
2023-04-13T17:13:05.202Z,98700.23
2023-04-13T17:15:33.150Z,98704.31
2023-04-13T17:18:04.086Z,98708.59
2023-04-13T17:20:32.547Z,98708.77
2023-04-13T17:23:00.586Z,98703.95
2023-04-13T17:25:29.919Z,98709.31
2023-04-13T17:28:04.077Z,98710.69
2023-04-13T17:30:31.949Z,98710.52
2023-04-13T17:33:00.737Z,98712.95
2023-04-13T17:35:30.702Z,98717.26
2023-04-13T17:37:58.536Z,98719.83
2023-04-13T17:40:31.946Z,98719.83
2023-04-13T17:42:59.844Z,98718.46
2023-04-13T17:45:27.933Z,98721.95
2023-04-13T17:47:55.970Z,98721.63
2023-04-13T17:50:23.937Z,98725.23
2023-04-13T17:52:54.309Z,98729.05
2023-04-13T17:55:23.729Z,98730.60
2023-04-13T17:57:51.589Z,98736.98
2023-04-13T18:00:20.378Z,98738.02
2023-04-13T18:02:58.371Z,98737.52
2023-04-13T18:05:27.761Z,98737.20
2023-04-13T18:07:55.834Z,98742.39
2023-04-13T18:10:24.761Z,98740.32
2023-04-13T18:12:53.577Z,98744.29
2023-04-13T18:15:21.854Z,98746.86
2023-04-13T18:17:49.888Z,98748.75
2023-04-13T18:20:22.159Z,98750.66
2023-04-13T18:22:50.522Z,98751.34
2023-04-13T18:25:19.170Z,98749.61
2023-04-13T18:27:47.342Z,98750.15
2023-04-13T18:30:15.745Z,98751.70
2023-04-13T18:32:44.448Z,98754.13
2023-04-13T18:35:13.043Z,98753.13
2023-04-13T18:37:43.579Z,98753.65
2023-04-13T18:40:13.273Z,98754.69
2023-04-13T18:42:42.055Z,98752.80
2023-04-13T18:45:11.256Z,98756.75
2023-04-13T18:47:40.815Z,98753.83
2023-04-13T18:50:09.185Z,98752.63
2023-04-13T18:52:38.453Z,98748.35
2023-04-13T18:55:06.808Z,98748.34
2023-04-13T18:57:38.911Z,98748.52
2023-04-13T19:00:10.322Z,98746.81
2023-04-13T19:02:42.464Z,98744.40
2023-04-13T19:05:12.752Z,98749.38
2023-04-13T19:07:44.744Z,98749.72
2023-04-13T19:10:12.955Z,98748.88
2023-04-13T19:12:41.413Z,98748.56
2023-04-13T19:15:13.964Z,98749.09
2023-04-13T19:17:43.983Z,98746.86
2023-04-13T19:20:13.320Z,98752.20
2023-04-13T19:22:41.683Z,98752.20
2023-04-13T19:25:14.423Z,98751.53
2023-04-13T19:27:44.591Z,98754.48
2023-04-13T19:30:13.307Z,98755.00
2023-04-13T19:32:44.336Z,98756.03
2023-04-13T19:35:12.989Z,98758.09
2023-04-13T19:37:41.568Z,98757.05
2023-04-13T19:40:16.935Z,98756.53
2023-04-13T19:42:45.594Z,98757.23
2023-04-13T19:45:13.571Z,98761.02
2023-04-13T19:47:42.536Z,98760.67
2023-04-13T19:50:11.406Z,98760.70
2023-04-13T19:52:39.655Z,98762.61
2023-04-13T19:55:10.470Z,98758.50
2023-04-13T19:57:42.183Z,98761.08
2023-04-13T20:00:17.402Z,98762.63
2023-04-13T20:02:50.785Z,98765.20
2023-04-13T20:05:19.656Z,98766.93
2023-04-13T20:07:47.437Z,98765.21
2023-04-13T20:10:15.690Z,98772.08
2023-04-13T20:12:45.723Z,98773.80
2023-04-13T20:15:13.788Z,98773.30
2023-04-13T20:17:42.812Z,98778.64
2023-04-13T20:20:11.172Z,98779.50
2023-04-13T20:22:39.233Z,98777.27
2023-04-13T20:25:07.907Z,98776.42
2023-04-13T20:27:37.790Z,98777.63
2023-04-13T20:30:06.347Z,98777.45
2023-04-13T20:32:35.875Z,98777.11
2023-04-13T20:35:06.223Z,98776.09
2023-04-13T20:37:34.081Z,98776.08
2023-04-13T20:40:02.852Z,98777.96
2023-04-13T20:42:31.953Z,98775.56
2023-04-13T20:45:00.245Z,98774.55
2023-04-13T20:47:28.647Z,98775.77
2023-04-13T20:49:59.896Z,98774.73
2023-04-13T20:52:31.789Z,98772.85
2023-04-13T20:55:00.142Z,98768.55
2023-04-13T20:57:29.637Z,98770.96
2023-04-13T20:59:58.333Z,98774.40
2023-04-13T21:02:29.613Z,98775.27
2023-04-13T21:04:57.717Z,98776.30
2023-04-13T21:07:25.557Z,98777.85
2023-04-13T21:09:57.123Z,98780.08
2023-04-13T21:12:26.294Z,98781.30
2023-04-13T21:14:54.319Z,98781.48
2023-04-13T21:17:22.796Z,98781.66
2023-04-13T21:20:01.259Z,98782.36
2023-04-13T21:22:29.865Z,98784.60
2023-04-13T21:24:57.664Z,98783.73
2023-04-13T21:27:25.902Z,98785.12
2023-04-13T21:29:53.738Z,98785.46
2023-04-13T21:32:26.483Z,98784.42
2023-04-13T21:34:55.869Z,98783.23
2023-04-13T21:37:23.857Z,98782.90
2023-04-13T21:39:51.766Z,98782.73
2023-04-13T21:42:21.414Z,98785.11
2023-04-13T21:44:51.109Z,98784.08
2023-04-13T21:47:19.313Z,98784.94
2023-04-13T21:49:47.291Z,98784.42
2023-04-13T21:52:19.070Z,98783.22
2023-04-13T21:54:47.952Z,98786.15
2023-04-13T21:57:17.069Z,98784.11
2023-04-13T21:59:46.017Z,98781.36
2023-04-13T22:02:13.966Z,98780.50
2023-04-13T22:04:41.905Z,98777.41
2023-04-13T22:07:10.218Z,98773.98
2023-04-13T22:09:39.001Z,98769.86
2023-04-13T22:12:07.283Z,98772.44
2023-04-13T22:14:35.166Z,98766.79
2023-04-13T22:17:05.835Z,98768.50
2023-04-13T22:19:33.785Z,98775.02
2023-04-13T22:22:01.664Z,98777.61
2023-04-13T22:24:33.666Z,98778.31
2023-04-13T22:27:03.408Z,98775.89
2023-04-13T22:29:31.505Z,98775.05
2023-04-13T22:32:00.156Z,98773.85
2023-04-13T22:34:29.344Z,98772.66
2023-04-13T22:36:57.223Z,98774.91
2023-04-13T22:39:31.130Z,98777.66
2023-04-13T22:41:59.186Z,98776.46
2023-04-13T22:44:34.954Z,98774.57
2023-04-13T22:47:03.530Z,98775.95
2023-04-13T22:49:31.392Z,98774.77
2023-04-13T22:52:00.545Z,98774.58
2023-04-13T22:54:28.348Z,98776.65
2023-04-13T22:56:56.174Z,98782.15
2023-04-13T22:59:27.441Z,98782.50
2023-04-13T23:01:55.653Z,98784.55
2023-04-13T23:04:23.844Z,98786.29
2023-04-13T23:06:51.947Z,98789.72
2023-04-13T23:09:22.053Z,98790.75
2023-04-13T23:11:49.874Z,98789.92
2023-04-13T23:14:18.610Z,98791.46
2023-04-13T23:16:51.393Z,98794.55
2023-04-13T23:19:19.852Z,98790.44
2023-04-13T23:21:48.000Z,98789.91
2023-04-13T23:24:22.364Z,98791.30
2023-04-13T23:26:50.272Z,98788.73
2023-04-13T23:29:19.921Z,98792.68
2023-04-13T23:31:58.888Z,98795.10
2023-04-13T23:34:27.049Z,98796.11
2023-04-13T23:36:54.900Z,98794.58
2023-04-13T23:39:23.792Z,98795.63
2023-04-13T23:41:51.690Z,98794.77
2023-04-13T23:44:19.590Z,98795.95
2023-04-13T23:46:47.337Z,98803.34
2023-04-13T23:49:15.224Z,98807.11
2023-04-13T23:51:43.803Z,98805.23
2023-04-13T23:54:12.008Z,98804.20
2023-04-13T23:56:40.218Z,98805.40
2023-04-13T23:59:09.399Z,98802.66
